Time;durP1;ratioP1;P1;durP2;ratioP2;P2;SDS_P1;SDS_P2;PMS_P1;PMS_P2;Temp;Humidity;BMP_temperature;BMP_pressure;BME280_temperature;BME280_humidity;BME280_pressure;Samples;Min_cycle;Max_cycle;Signal;HPM_P1;HPM_P2
2022/08/18 00:02:18;;;;;;;37.53;31.25;;;25.50;1.00;;;;;;5111159;28;20036;-54
2022/08/18 00:04:45;;;;;;;38.75;33.95;;;25.50;1.00;;;;;;5085192;28;20052;-53
2022/08/18 00:07:20;;;;;;;37.90;31.65;;;25.50;1.00;;;;;;5106126;28;20019;-55
2022/08/18 00:09:49;;;;;;;34.25;30.23;;;25.50;1.00;;;;;;5106241;28;20036;-52
2022/08/18 00:12:28;;;;;;;36.80;32.17;;;25.50;1.00;;;;;;5112292;28;20020;-55
2022/08/18 00:14:55;;;;;;;37.03;33.05;;;25.50;1.00;;;;;;5107226;28;20020;-55
2022/08/18 00:17:22;;;;;;;43.70;35.50;;;25.40;1.00;;;;;;5112271;28;20492;-52
2022/08/18 00:19:48;;;;;;;37.28;32.97;;;25.30;1.00;;;;;;5093276;28;20430;-53
2022/08/18 00:22:17;;;;;;;37.83;33.75;;;25.20;1.00;;;;;;5112270;28;20480;-57
2022/08/18 00:24:45;;;;;;;36.42;32.03;;;25.30;1.00;;;;;;5111274;28;20114;-56
2022/08/18 00:27:11;;;;;;;41.70;34.72;;;25.30;1.00;;;;;;5112124;28;20031;-56
2022/08/18 00:29:36;;;;;;;40.45;35.92;;;25.30;1.00;;;;;;5110824;28;20040;-57
2022/08/18 00:32:13;;;;;;;38.60;31.88;;;25.20;1.00;;;;;;5093904;28;20021;-57
2022/08/18 00:34:39;;;;;;;37.95;31.35;;;25.20;1.00;;;;;;5111079;28;20032;-56
2022/08/18 00:37:05;;;;;;;33.47;29.88;;;25.20;1.00;;;;;;5112016;28;20121;-57
2022/08/18 00:39:32;;;;;;;33.63;29.35;;;25.20;1.00;;;;;;5111478;28;20444;-56
2022/08/18 00:41:59;;;;;;;34.90;28.85;;;25.20;1.00;;;;;;5112529;28;20018;-56
2022/08/18 00:44:24;;;;;;;32.20;28.90;;;25.30;1.00;;;;;;5114971;28;20098;-55
2022/08/18 00:46:50;;;;;;;29.63;26.63;;;25.30;1.00;;;;;;5116197;28;20035;-54
2022/08/18 00:49:17;;;;;;;33.08;27.35;;;25.30;1.00;;;;;;5114689;28;20105;-56
2022/08/18 00:51:49;;;;;;;32.17;27.15;;;25.30;1.00;;;;;;5116024;28;20438;-56
2022/08/18 00:54:21;;;;;;;32.47;25.58;;;25.20;1.00;;;;;;5115359;28;20527;-55
2022/08/18 00:56:54;;;;;;;30.35;24.13;;;25.20;1.00;;;;;;5116262;28;20023;-56
2022/08/18 00:59:22;;;;;;;25.25;22.45;;;25.20;1.00;;;;;;5114903;28;20477;-56
2022/08/18 01:01:50;;;;;;;25.02;22.33;;;25.20;1.00;;;;;;5115854;28;20076;-56
2022/08/18 01:04:30;;;;;;;25.48;22.80;;;25.20;1.00;;;;;;5096493;28;20446;-55
2022/08/18 01:07:08;;;;;;;27.52;21.23;;;25.20;1.00;;;;;;5116118;28;20114;-56
2022/08/18 01:09:34;;;;;;;25.90;22.05;;;25.20;1.00;;;;;;5101623;28;20114;-56
2022/08/18 01:12:00;;;;;;;25.55;22.75;;;25.20;1.00;;;;;;5115836;28;20164;-55
2022/08/18 01:14:25;;;;;;;27.50;23.55;;;25.20;1.00;;;;;;5113278;28;20387;-56
2022/08/18 01:22:34;;;;;;;28.98;21.15;;;25.10;1.00;;;;;;5115061;28;19995;-54
2022/08/18 01:27:45;;;;;;;25.77;20.75;;;25.20;1.00;;;;;;5114482;28;20408;-54
2022/08/18 01:30:14;;;;;;;25.20;22.52;;;25.10;1.00;;;;;;5113813;28;20055;-53
2022/08/18 01:32:41;;;;;;;23.20;19.73;;;25.10;1.00;;;;;;5114302;28;20038;-53
2022/08/18 01:35:10;;;;;;;21.08;19.15;;;25.20;1.00;;;;;;5113453;28;20030;-54
2022/08/18 01:37:36;;;;;;;19.58;16.27;;;25.20;1.00;;;;;;5114676;28;20023;-56
2022/08/18 01:40:05;;;;;;;17.77;15.18;;;25.10;1.00;;;;;;5113242;28;20027;-52
2022/08/18 01:42:32;;;;;;;16.88;14.30;;;25.10;1.00;;;;;;5095768;28;20053;-56
2022/08/18 01:44:58;;;;;;;15.30;13.70;;;25.10;1.00;;;;;;5112569;28;20110;-55
2022/08/18 01:47:24;;;;;;;14.77;12.60;;;25.00;1.00;;;;;;5113731;28;20115;-56
2022/08/18 01:49:52;;;;;;;15.60;12.68;;;25.00;1.00;;;;;;5113109;28;20039;-55
2022/08/18 01:52:20;;;;;;;14.40;11.23;;;25.00;1.00;;;;;;5114424;28;20423;-53
2022/08/18 01:54:47;;;;;;;11.52;10.38;;;25.00;1.00;;;;;;5110813;28;20027;-55
2022/08/18 01:57:14;;;;;;;11.88;10.13;;;25.10;1.00;;;;;;5113280;28;20051;-55
2022/08/18 01:59:41;;;;;;;10.35;9.13;;;25.00;1.00;;;;;;5106228;28;20012;-56
2022/08/18 02:02:08;;;;;;;10.15;8.80;;;25.10;1.00;;;;;;5112204;28;20037;-53
2022/08/18 02:04:35;;;;;;;11.40;8.95;;;25.10;1.00;;;;;;5092823;28;20032;-54
2022/08/18 02:07:01;;;;;;;11.35;8.80;;;25.00;1.00;;;;;;5113900;28;20449;-55
2022/08/18 02:09:28;;;;;;;9.95;8.90;;;25.00;1.00;;;;;;5113170;28;20030;-53
2022/08/18 02:11:55;;;;;;;11.60;8.63;;;24.80;1.00;;;;;;5113408;28;20462;-56
2022/08/18 02:14:21;;;;;;;9.93;8.13;;;24.90;1.00;;;;;;5112712;28;20057;-57
2022/08/18 02:16:46;;;;;;;10.40;8.43;;;24.80;1.00;;;;;;5113327;28;20532;-52
2022/08/18 02:19:12;;;;;;;10.70;7.55;;;24.90;1.00;;;;;;5111028;28;20042;-52
2022/08/18 02:21:37;;;;;;;9.48;6.88;;;24.80;1.00;;;;;;5113238;28;20140;-56
2022/08/18 02:24:03;;;;;;;9.93;7.70;;;24.90;1.00;;;;;;5112066;28;20061;-56
2022/08/18 02:26:29;;;;;;;7.80;6.50;;;25.00;1.00;;;;;;5113123;28;20099;-52
2022/08/18 02:28:55;;;;;;;9.23;6.53;;;25.00;1.00;;;;;;5112520;28;20024;-56
2022/08/18 02:31:23;;;;;;;9.35;6.25;;;25.00;1.00;;;;;;5113041;28;20027;-55
2022/08/18 02:33:50;;;;;;;8.65;6.32;;;25.00;1.00;;;;;;5101375;28;20041;-55
2022/08/18 02:36:16;;;;;;;8.90;6.13;;;25.00;1.00;;;;;;5103604;28;20153;-55
2022/08/18 02:38:42;;;;;;;10.45;6.75;;;25.00;1.00;;;;;;5108226;28;20099;-56
2022/08/18 02:41:10;;;;;;;9.18;6.25;;;25.00;1.00;;;;;;5113092;28;20100;-51
2022/08/18 02:43:37;;;;;;;8.20;5.15;;;25.00;1.00;;;;;;5111232;28;20026;-55
2022/08/18 02:46:04;;;;;;;7.70;5.63;;;25.00;1.00;;;;;;5112872;28;20023;-55
2022/08/18 02:51:08;;;;;;;9.13;6.18;;;25.00;1.00;;;;;;5112016;28;20036;-56
2022/08/18 02:53:34;;;;;;;6.07;5.47;;;25.10;1.00;;;;;;5112140;28;20034;-54
2022/08/18 02:58:46;;;;;;;6.40;5.68;;;25.00;1.00;;;;;;5112283;28;20028;-57
2022/08/18 03:01:12;;;;;;;7.05;5.75;;;25.00;1.00;;;;;;5113985;28;20055;-55
2022/08/18 03:03:37;;;;;;;7.93;6.10;;;25.00;1.00;;;;;;5112509;28;20018;-55
2022/08/18 03:06:04;;;;;;;8.57;5.88;;;24.90;1.00;;;;;;5113433;28;20023;-55
2022/08/18 03:08:31;;;;;;;7.63;5.38;;;25.00;1.00;;;;;;5111714;28;20426;-56
2022/08/18 03:10:56;;;;;;;6.18;5.57;;;25.00;1.00;;;;;;5113230;28;20548;-56
2022/08/18 03:13:22;;;;;;;13.88;7.70;;;25.00;1.00;;;;;;5108779;28;20097;-57
2022/08/18 03:15:47;;;;;;;7.22;6.18;;;24.80;1.00;;;;;;5094111;28;20028;-57
2022/08/18 03:18:13;;;;;;;8.18;6.88;;;24.90;1.00;;;;;;5112565;28;20338;-56
2022/08/18 03:20:39;;;;;;;8.73;6.28;;;25.00;1.00;;;;;;5112619;28;20034;-56
2022/08/18 03:23:04;;;;;;;9.15;5.88;;;24.90;1.00;;;;;;5112423;28;20043;-55
2022/08/18 03:25:31;;;;;;;6.28;5.68;;;24.90;1.00;;;;;;5112649;28;20035;-56
2022/08/18 03:27:57;;;;;;;8.82;6.07;;;24.90;1.00;;;;;;5113085;28;20016;-56
2022/08/18 03:30:22;;;;;;;9.20;5.85;;;24.90;1.00;;;;;;5112333;28;20040;-56
2022/08/18 03:32:49;;;;;;;9.15;5.50;;;24.90;1.00;;;;;;5112942;28;20354;-57
2022/08/18 03:35:15;;;;;;;8.55;6.28;;;24.90;1.00;;;;;;5093174;28;20488;-57
2022/08/18 03:37:41;;;;;;;8.10;5.68;;;24.80;1.00;;;;;;5112965;28;20077;-56
2022/08/18 03:40:09;;;;;;;6.70;5.90;;;24.80;1.00;;;;;;5112140;28;20131;-57
2022/08/18 03:42:35;;;;;;;8.30;5.75;;;24.80;1.00;;;;;;5094537;28;20024;-56
2022/08/18 03:45:01;;;;;;;7.63;5.97;;;24.90;1.00;;;;;;5112015;28;20066;-56
2022/08/18 03:47:26;;;;;;;7.50;5.95;;;24.80;1.00;;;;;;5112774;28;20072;-56
2022/08/18 03:49:52;;;;;;;6.78;5.78;;;24.80;1.00;;;;;;5111358;28;20043;-57
2022/08/18 03:52:18;;;;;;;6.57;5.45;;;24.80;1.00;;;;;;5112738;28;20034;-56
2022/08/18 03:54:45;;;;;;;7.05;5.40;;;24.80;1.00;;;;;;5111649;28;20032;-57
2022/08/18 03:57:11;;;;;;;7.75;4.95;;;24.80;1.00;;;;;;5112434;28;20061;-57
2022/08/18 03:59:40;;;;;;;5.90;5.30;;;24.80;1.00;;;;;;5110837;28;20024;-57
2022/08/18 04:02:06;;;;;;;6.68;5.15;;;24.80;1.00;;;;;;5111687;28;20024;-56
2022/08/18 04:04:32;;;;;;;5.95;5.18;;;24.80;1.00;;;;;;5110647;28;20027;-57
2022/08/18 04:07:03;;;;;;;8.55;5.47;;;24.80;1.00;;;;;;5112538;28;20457;-57
2022/08/18 04:09:31;;;;;;;7.45;5.28;;;24.70;1.00;;;;;;5110163;28;20100;-57
2022/08/18 04:12:01;;;;;;;7.20;5.65;;;24.70;1.00;;;;;;5109419;28;20505;-57
2022/08/18 04:14:31;;;;;;;7.05;5.45;;;24.70;1.00;;;;;;5111307;28;20050;-57
2022/08/18 04:16:58;;;;;;;7.78;5.32;;;24.80;1.00;;;;;;5111773;28;20031;-54
2022/08/18 04:19:24;;;;;;;7.93;5.25;;;24.80;1.00;;;;;;5111287;28;20485;-57
2022/08/18 04:21:52;;;;;;;7.63;5.50;;;24.80;1.00;;;;;;5111423;28;20038;-57
2022/08/18 04:24:19;;;;;;;8.20;5.15;;;24.70;1.00;;;;;;5109164;28;20039;-55
2022/08/18 04:26:47;;;;;;;8.43;5.53;;;24.70;1.00;;;;;;5111204;28;20081;-57
2022/08/18 04:29:15;;;;;;;6.10;4.57;;;24.70;1.00;;;;;;5092828;28;20074;-57
2022/08/18 04:31:41;;;;;;;10.85;6.50;;;24.80;1.60;;;;;;5112098;28;20026;-57
2022/08/18 04:34:07;;;;;;;10.77;6.15;;;24.40;27.80;;;;;;5111516;28;20059;-57
2022/08/18 04:36:35;;;;;;;10.38;6.38;;;24.20;96.60;;;;;;5093794;28;20574;-57
2022/08/18 04:39:02;;;;;;;9.25;6.22;;;24.20;12.80;;;;;;5111258;28;20027;-56
2022/08/18 04:41:28;;;;;;;12.20;7.15;;;24.00;4.10;;;;;;5110278;28;20457;-55
2022/08/18 04:43:59;;;;;;;16.20;7.53;;;23.90;3.40;;;;;;5111854;28;20126;-56
2022/08/18 04:46:25;;;;;;;14.20;8.25;;;23.90;12.90;;;;;;5111565;28;20080;-55
2022/08/18 04:48:55;;;;;;;11.35;6.85;;;23.80;6.70;;;;;;5111923;28;20031;-57
2022/08/18 04:51:20;;;;;;;8.20;6.10;;;23.70;5.60;;;;;;5111023;28;20063;-56
2022/08/18 04:53:47;;;;;;;9.95;6.32;;;23.50;5.40;;;;;;5093652;28;20477;-56
2022/08/18 04:56:20;;;;;;;8.98;6.45;;;23.50;5.70;;;;;;5111016;28;20039;-55
2022/08/18 04:58:51;;;;;;;8.95;6.75;;;23.60;11.00;;;;;;5111886;28;20035;-56
2022/08/18 05:01:20;;;;;;;9.82;7.10;;;23.70;6.00;;;;;;5111026;28;20027;-55
2022/08/18 05:03:51;;;;;;;9.18;6.13;;;23.70;5.60;;;;;;5111774;28;20358;-56
2022/08/18 05:06:18;;;;;;;10.13;6.80;;;23.80;4.50;;;;;;5110223;28;20132;-56
2022/08/18 05:08:45;;;;;;;12.70;7.60;;;23.90;4.10;;;;;;5111593;28;20473;-55
2022/08/18 05:11:11;;;;;;;7.72;6.57;;;23.80;3.70;;;;;;5110970;28;20485;-57
2022/08/18 05:13:37;;;;;;;8.63;6.63;;;23.90;3.60;;;;;;5111494;28;20015;-56
2022/08/18 05:16:03;;;;;;;7.13;6.15;;;24.00;3.50;;;;;;5111007;28;20039;-56
2022/08/18 05:18:37;;;;;;;8.07;6.50;;;24.00;3.30;;;;;;5111644;28;20042;-56
2022/08/18 05:21:03;;;;;;;;;;;24.00;3.30;;;;;;5107044;28;20019;-57
2022/08/18 05:23:29;;;;;;;9.85;6.50;;;23.80;6.30;;;;;;5111626;28;19903;-55
2022/08/18 05:25:59;;;;;;;11.73;6.68;;;23.80;3.60;;;;;;5111035;28;20024;-56
2022/08/18 05:28:25;;;;;;;10.75;6.82;;;23.70;7.30;;;;;;5112981;28;20031;-56
2022/08/18 05:30:51;;;;;;;9.35;7.10;;;23.60;2.90;;;;;;5114117;28;20065;-56
2022/08/18 05:33:17;;;;;;;10.00;6.53;;;23.50;3.90;;;;;;5096061;28;20031;-57
2022/08/18 05:35:45;;;;;;;8.90;7.13;;;23.50;3.20;;;;;;5114499;28;20358;-57
2022/08/18 05:38:23;;;;;;;9.10;7.18;;;23.50;4.00;;;;;;5085652;28;20031;-58
2022/08/18 05:41:27;;;;;;;11.57;7.55;;;23.30;5.60;;;;;;5114525;28;20028;-55
2022/08/18 05:43:53;;;;;;;9.68;7.50;;;23.40;10.80;;;;;;5105924;28;20036;-56
2022/08/18 05:46:29;;;;;;;10.40;8.98;;;23.30;6.20;;;;;;5114479;28;20110;-58
2022/08/18 05:48:54;;;;;;;13.32;9.55;;;23.30;11.30;;;;;;5115370;28;20022;-56
2022/08/18 05:51:37;;;;;;;11.90;9.30;;;23.30;6.50;;;;;;5101813;28;20036;-57
2022/08/18 05:56:53;;;;;;;12.55;11.25;;;22.70;41.70;;;;;;5102162;28;20605;-57
2022/08/18 05:59:21;;;;;;;18.83;11.70;;;22.90;74.30;;;;;;5114172;28;20528;-56
2022/08/18 06:01:53;;;;;;;14.82;11.95;;;22.80;15.20;;;;;;5114850;28;20039;-57
2022/08/18 06:04:21;;;;;;;15.48;11.63;;;22.90;19.70;;;;;;5114200;28;20031;-57
2022/08/18 06:06:48;;;;;;;15.90;12.35;;;22.90;12.90;;;;;;5113317;28;20031;-57
2022/08/18 06:09:49;;;;;;;13.80;11.73;;;22.90;11.00;;;;;;5113962;28;20064;-58
2022/08/18 06:12:24;;;;;;;16.75;11.75;;;23.10;12.90;;;;;;5100200;28;20540;-57
2022/08/18 06:14:51;;;;;;;13.70;10.85;;;23.20;8.30;;;;;;5113136;28;20115;-57
2022/08/18 06:17:52;;;;;;;12.63;10.35;;;23.20;6.40;;;;;;5114916;28;20402;-57
2022/08/18 06:20:50;;;;;;;12.70;9.55;;;23.20;7.10;;;;;;5111532;28;20024;-57
2022/08/18 06:23:33;;;;;;;15.98;11.57;;;23.40;5.40;;;;;;5112833;28;20020;-58
2022/08/18 06:26:39;;;;;;;14.48;10.57;;;23.60;5.20;;;;;;5112064;28;20068;-57
2022/08/18 06:29:16;;;;;;;11.57;10.35;;;23.40;4.40;;;;;;5095161;28;20055;-57
2022/08/18 06:32:07;;;;;;;14.50;9.80;;;23.50;4.90;;;;;;5104614;28;20032;-58
2022/08/18 06:34:39;;;;;;;13.80;9.65;;;23.60;1.30;;;;;;5112809;28;20068;-57
2022/08/18 06:37:21;;;;;;;14.15;9.43;;;23.60;1.00;;;;;;5097543;28;20331;-57
2022/08/18 06:39:50;;;;;;;11.75;9.60;;;23.50;1.00;;;;;;5096180;28;20123;-58
2022/08/18 06:42:24;;;;;;;10.18;9.02;;;23.40;1.50;;;;;;5107959;28;20034;-58
2022/08/18 06:44:56;;;;;;;12.20;9.23;;;23.70;1.00;;;;;;5113158;28;20078;-58
2022/08/18 06:47:40;;;;;;;12.18;9.45;;;23.80;1.00;;;;;;5113264;28;20031;-58
2022/08/18 06:50:20;;;;;;;9.40;8.38;;;23.80;1.00;;;;;;5105860;28;20436;-58
2022/08/18 06:52:57;;;;;;;9.77;8.77;;;23.50;1.00;;;;;;5105654;28;20032;-58
2022/08/18 06:55:41;;;;;;;12.65;8.85;;;23.70;1.00;;;;;;5099941;28;20027;-58
2022/08/18 06:58:16;;;;;;;14.90;8.55;;;23.80;1.00;;;;;;5112800;28;20059;-58
2022/08/18 07:00:53;;;;;;;11.20;8.52;;;24.00;1.00;;;;;;5113714;28;20107;-58
2022/08/18 07:03:22;;;;;;;11.85;8.40;;;24.00;1.00;;;;;;5112004;28;20027;-57
2022/08/18 07:06:02;;;;;;;13.68;9.02;;;23.80;1.00;;;;;;5113559;28;20011;-56
2022/08/18 07:08:35;;;;;;;13.75;9.18;;;24.00;1.00;;;;;;5112612;28;20030;-56
2022/08/18 07:11:23;;;;;;;12.93;8.38;;;24.10;1.00;;;;;;5113372;28;20031;-56
2022/08/18 07:13:52;;;;;;;12.05;8.20;;;24.00;1.00;;;;;;5112685;28;20015;-56
2022/08/18 07:16:31;;;;;;;10.98;8.05;;;23.90;1.00;;;;;;5113584;28;20039;-58
2022/08/18 07:19:07;;;;;;;9.77;8.52;;;24.10;1.00;;;;;;5105941;28;20027;-58
2022/08/18 07:21:36;;;;;;;10.55;8.18;;;24.20;1.00;;;;;;5113215;28;20032;-58
2022/08/18 07:24:24;;;;;;;8.98;7.80;;;24.20;1.00;;;;;;5112159;28;20023;-58
2022/08/18 07:27:02;;;;;;;12.60;7.97;;;24.20;1.00;;;;;;5113094;28;20030;-59
2022/08/18 07:29:31;;;;;;;10.68;8.77;;;24.30;1.00;;;;;;5106219;28;20058;-58
2022/08/18 07:32:01;;;;;;;10.88;8.43;;;24.30;1.00;;;;;;5113041;28;20080;-58
2022/08/18 07:34:32;;;;;;;8.85;7.93;;;24.30;1.00;;;;;;5112159;28;20039;-58
2022/08/18 07:37:04;;;;;;;10.15;7.55;;;24.20;1.00;;;;;;5112901;28;20107;-59
2022/08/18 07:39:37;;;;;;;10.63;7.68;;;24.20;1.00;;;;;;5111900;28;20073;-56
2022/08/18 07:42:16;;;;;;;12.63;8.10;;;24.20;1.00;;;;;;5112866;28;20030;-58
2022/08/18 07:45:05;;;;;;;13.68;8.55;;;24.00;5.90;;;;;;5111733;28;20086;-58
2022/08/18 07:47:45;;;;;;;12.88;8.95;;;24.00;1.60;;;;;;5112076;28;20028;-58
2022/08/18 07:50:11;;;;;;;13.88;9.10;;;23.60;10.70;;;;;;5111711;28;20122;-58
2022/08/18 07:52:57;;;;;;;17.80;11.38;;;23.40;4.50;;;;;;5111708;28;20491;-57
2022/08/18 07:55:30;;;;;;;13.32;10.32;;;23.30;25.40;;;;;;5112931;28;20398;-57
2022/08/18 07:58:01;;;;;;;11.40;9.93;;;23.30;42.00;;;;;;5111788;28;20060;-54
2022/08/18 08:00:32;;;;;;;14.68;9.82;;;23.20;99.90;;;;;;5112635;28;20031;-55
2022/08/18 08:03:16;;;;;;;12.10;9.10;;;23.20;99.90;;;;;;5111496;28;20020;-56
2022/08/18 08:05:56;;;;;;;13.07;9.60;;;23.00;99.90;;;;;;5101014;28;20408;-55
2022/08/18 08:08:27;;;;;;;14.70;10.05;;;22.80;99.90;;;;;;5111323;28;20028;-55
2022/08/18 08:10:59;;;;;;;21.98;10.90;;;22.80;99.90;;;;;;5112286;28;20035;-57
2022/08/18 08:13:34;;;;;;;19.05;11.90;;;22.80;99.90;;;;;;5112043;28;20393;-56
2022/08/18 08:16:34;;;;;;;16.20;12.10;;;22.70;99.90;;;;;;5112043;28;20031;-55
2022/08/18 08:19:48;;;;;;;11.90;10.13;;;22.80;99.90;;;;;;5076571;28;20032;-55
2022/08/18 08:22:45;;;;;;;13.10;10.73;;;22.40;99.90;;;;;;5062213;28;20039;-52
2022/08/18 08:25:25;;;;;;;13.10;11.80;;;22.50;99.90;;;;;;5100335;28;20382;-53
2022/08/18 08:28:12;;;;;;;17.45;12.55;;;22.40;99.90;;;;;;5112012;28;20503;-51
2022/08/18 08:30:54;;;;;;;17.65;12.35;;;22.60;99.90;;;;;;5110049;28;20032;-51
2022/08/18 08:33:31;;;;;;;19.83;13.68;;;22.60;99.90;;;;;;5111281;28;20449;-53
2022/08/18 08:36:26;;;;;;;18.05;14.38;;;22.60;99.90;;;;;;5111280;28;20109;-54
2022/08/18 08:38:58;;;;;;;23.50;14.90;;;22.50;99.90;;;;;;5110483;28;20161;-55
2022/08/18 08:41:30;;;;;;;24.98;15.77;;;22.60;99.90;;;;;;5112050;28;20026;-56
2022/08/18 08:44:21;;;;;;;19.45;14.98;;;22.60;99.90;;;;;;5111052;28;20574;-56
2022/08/18 08:47:03;;;;;;;20.15;12.65;;;22.50;99.90;;;;;;5101104;28;20039;-54
2022/08/18 08:49:51;;;;;;;24.13;15.07;;;22.10;99.90;;;;;;5107319;28;20564;-50
2022/08/18 08:52:26;;;;;;;27.35;17.00;;;22.70;99.90;;;;;;5103207;28;20385;-52
2022/08/18 08:55:25;;;;;;;26.50;18.02;;;22.90;99.90;;;;;;5110291;28;20032;-51
2022/08/18 08:58:02;;;;;;;25.00;19.67;;;23.20;99.90;;;;;;5096937;28;20080;-52
2022/08/18 09:00:29;;;;;;;25.25;19.45;;;23.10;99.90;;;;;;5110855;28;20083;-51
2022/08/18 09:03:32;;;;;;;31.30;24.95;;;23.00;99.90;;;;;;5112126;28;20023;-51
2022/08/18 09:06:25;;;;;;;31.00;22.02;;;22.90;99.90;;;;;;5115098;28;20138;-52
2022/08/18 09:09:09;;;;;;;25.30;19.45;;;22.90;99.90;;;;;;5105090;28;20023;-52
2022/08/18 09:11:52;;;;;;;34.13;22.27;;;22.80;99.90;;;;;;5115349;28;20043;-52
2022/08/18 09:14:42;;;;;;;32.42;23.42;;;22.80;99.90;;;;;;5114919;28;20284;-54
2022/08/18 09:17:26;;;;;;;42.35;25.50;;;22.70;99.90;;;;;;5115551;28;20470;-51
2022/08/18 09:20:09;;;;;;;35.85;23.58;;;22.80;99.90;;;;;;5114068;28;20024;-51
2022/08/18 09:22:37;;;;;;;33.63;23.80;;;23.00;99.90;;;;;;5088667;28;20398;-51
2022/08/18 09:25:10;;;;;;;38.42;24.15;;;22.90;99.90;;;;;;5109693;28;20707;-53
2022/08/18 09:27:45;;;;;;;33.45;23.88;;;23.00;99.90;;;;;;5115488;28;20031;-55
2022/08/18 09:30:57;;;;;;;31.58;22.63;;;22.80;99.90;;;;;;5114589;28;20438;-56
2022/08/18 09:33:44;;;;;;;24.98;19.90;;;22.80;99.90;;;;;;5083421;28;20036;-55
2022/08/18 09:36:28;;;;;;;22.45;19.10;;;22.80;99.90;;;;;;5110409;28;20042;-55
2022/08/18 09:42:04;;;;;;;28.23;20.70;;;22.60;99.90;;;;;;5114905;28;20439;-56
2022/08/18 09:44:45;;;;;;;27.65;20.13;;;22.50;99.90;;;;;;5100834;28;20116;-55
2022/08/18 09:47:32;;;;;;;32.00;22.08;;;22.60;99.90;;;;;;5114877;28;20070;-55
2022/08/18 09:50:04;;;;;;;35.90;21.77;;;22.70;99.90;;;;;;5113740;28;20035;-56
2022/08/18 09:52:32;;;;;;;29.48;21.10;;;22.40;99.90;;;;;;5115064;28;20172;-56
2022/08/18 09:55:25;;;;;;;37.95;24.38;;;22.70;99.90;;;;;;5114320;28;20043;-55
2022/08/18 09:58:16;;;;;;;48.70;24.85;;;22.80;99.90;;;;;;5112525;28;20023;-55
2022/08/18 10:00:42;;;;;;;46.47;23.52;;;22.70;99.90;;;;;;5106699;28;20027;-54
2022/08/18 10:03:17;;;;;;;34.95;23.45;;;22.70;99.90;;;;;;5102805;28;20035;-53
2022/08/18 10:06:11;;;;;;;31.20;21.45;;;22.90;99.90;;;;;;5093906;28;20042;-54
2022/08/18 10:09:03;;;;;;;35.17;23.67;;;23.00;99.90;;;;;;5112583;28;20032;-54
2022/08/18 10:11:57;;;;;;;41.38;24.88;;;22.80;99.90;;;;;;5100926;28;20092;-55
2022/08/18 10:15:01;;;;;;;35.85;25.05;;;22.80;99.90;;;;;;5112185;28;20028;-55
2022/08/18 10:17:44;;;;;;;43.05;25.77;;;22.90;99.90;;;;;;5100303;28;20056;-55
2022/08/18 10:20:38;;;;;;;52.10;28.20;;;23.10;99.90;;;;;;5114253;28;20497;-55
2022/08/18 10:23:06;;;;;;;57.90;30.15;;;23.20;99.90;;;;;;5112609;28;20027;-54
2022/08/18 10:25:40;;;;;;;51.53;29.55;;;23.20;99.90;;;;;;5114348;28;20107;-55
2022/08/18 10:28:09;;;;;;;47.88;29.23;;;22.80;99.90;;;;;;5113507;28;20032;-56
2022/08/18 10:30:35;;;;;;;46.85;28.27;;;22.70;99.90;;;;;;5114051;28;20538;-56
2022/08/18 10:33:04;;;;;;;36.00;24.92;;;22.60;99.90;;;;;;5113094;28;20032;-55
2022/08/18 10:35:35;;;;;;;39.22;25.65;;;22.60;99.90;;;;;;5114126;28;20034;-57
2022/08/18 10:38:04;;;;;;;42.80;24.25;;;22.80;99.90;;;;;;5113070;28;20020;-55
2022/08/18 10:40:31;;;;;;;46.67;27.85;;;22.70;99.90;;;;;;5095733;28;20385;-55
2022/08/18 10:43:14;;;;;;;45.10;23.30;;;22.60;99.90;;;;;;5113218;28;20016;-58
2022/08/18 10:45:50;;;;;;;59.20;29.15;;;22.30;99.90;;;;;;5113794;28;20531;-59
2022/08/18 10:48:28;;;;;;;40.97;25.25;;;22.40;99.90;;;;;;5112572;28;20111;-59
2022/08/18 10:51:06;;;;;;;36.53;18.80;;;22.40;99.90;;;;;;5113681;28;20035;-59
2022/08/18 10:53:57;;;;;;;66.75;29.15;;;22.30;99.90;;;;;;5104693;28;20111;-59
2022/08/18 10:56:34;;;;;;;41.15;22.92;;;22.40;99.90;;;;;;5112208;28;20461;-59
2022/08/18 10:59:18;;;;;;;53.13;25.88;;;22.20;99.90;;;;;;5113014;28;20114;-59
2022/08/18 11:02:07;;;;;;;44.70;22.23;;;22.30;99.90;;;;;;5099864;28;20016;-59
2022/08/18 11:04:39;;;;;;;39.60;24.17;;;22.20;99.90;;;;;;5111794;28;20281;-59
2022/08/18 11:07:13;;;;;;;47.20;26.70;;;22.40;99.90;;;;;;5111973;28;20023;-59
2022/08/18 11:09:41;;;;;;;57.05;28.70;;;22.40;99.90;;;;;;5108895;28;20039;-60
2022/08/18 11:12:10;;;;;;;30.80;20.80;;;22.40;99.90;;;;;;5101397;28;20102;-59
2022/08/18 11:15:09;;;;;;;54.95;29.35;;;22.40;99.90;;;;;;5111574;28;20393;-60
2022/08/18 11:17:39;;;;;;;36.10;24.05;;;22.40;99.90;;;;;;5102510;28;20028;-59
2022/08/18 11:20:11;;;;;;;47.42;27.25;;;22.40;99.90;;;;;;5106549;28;20049;-59
2022/08/18 11:22:37;;;;;;;40.30;24.35;;;22.50;99.90;;;;;;5101823;28;20028;-60
2022/08/18 11:25:24;;;;;;;50.85;26.85;;;22.50;99.90;;;;;;5113034;28;20122;-60
2022/08/18 11:27:50;;;;;;;42.72;25.13;;;22.50;99.90;;;;;;5112185;28;20499;-60
2022/08/18 11:30:17;;;;;;;25.13;19.27;;;22.60;99.90;;;;;;5096255;28;20123;-60
2022/08/18 11:32:43;;;;;;;33.20;20.60;;;22.50;99.90;;;;;;5100515;28;20058;-59
2022/08/18 11:35:16;;;;;;;20.85;15.70;;;22.50;99.90;;;;;;5098551;28;20055;-59
2022/08/18 11:37:47;;;;;;;26.90;16.97;;;22.40;99.90;;;;;;5111873;28;20337;-58
2022/08/18 11:40:19;;;;;;;21.83;14.75;;;22.50;99.90;;;;;;5107180;28;20027;-59
2022/08/18 11:43:01;;;;;;;18.10;12.13;;;22.10;99.90;;;;;;5112135;28;20445;-58
2022/08/18 11:45:33;;;;;;;18.90;14.35;;;22.30;99.90;;;;;;5112645;28;20070;-59
2022/08/18 11:48:14;;;;;;;22.17;15.50;;;22.40;99.90;;;;;;5110355;28;20020;-58
2022/08/18 11:50:45;;;;;;;27.38;17.55;;;22.30;99.90;;;;;;5108645;28;20036;-58
2022/08/18 11:53:38;;;;;;;16.58;12.30;;;22.40;99.90;;;;;;5111879;28;20053;-57
2022/08/18 11:56:15;;;;;;;30.33;16.73;;;22.20;99.90;;;;;;5112602;28;20106;-58
2022/08/18 11:58:45;;;;;;;28.20;16.75;;;22.40;99.90;;;;;;5111662;28;20016;-58
2022/08/18 12:01:50;;;;;;;19.25;13.43;;;22.10;99.90;;;;;;5112436;28;20023;-59
2022/08/18 12:04:19;;;;;;;24.55;14.32;;;21.80;99.90;;;;;;5105608;28;20546;-59
2022/08/18 12:06:54;;;;;;;21.38;12.90;;;21.70;99.90;;;;;;5112504;28;20043;-59
2022/08/18 12:09:25;;;;;;;25.88;16.40;;;22.00;99.90;;;;;;5110606;28;20423;-59
2022/08/18 12:11:57;;;;;;;21.88;15.60;;;22.40;99.90;;;;;;5112336;28;20020;-59
2022/08/18 12:14:25;;;;;;;22.15;15.65;;;22.20;99.90;;;;;;5111898;28;20118;-59
2022/08/18 12:16:52;;;;;;;17.17;14.25;;;22.20;99.90;;;;;;5112203;28;20030;-59
2022/08/18 12:19:17;;;;;;;26.05;16.83;;;22.20;99.90;;;;;;5111161;28;20073;-59
2022/08/18 12:21:59;;;;;;;15.32;11.95;;;22.50;99.90;;;;;;5112109;28;20035;-59
2022/08/18 12:24:30;;;;;;;17.58;14.52;;;22.40;99.90;;;;;;5111315;28;20027;-59
2022/08/18 12:26:57;;;;;;;16.73;12.38;;;23.10;99.90;;;;;;5111362;28;20051;-59
2022/08/18 12:29:23;;;;;;;13.25;11.85;;;24.40;99.90;;;;;;5108820;28;20027;-59
2022/08/18 12:31:51;;;;;;;13.52;11.20;;;26.30;99.90;;;;;;5111936;28;20058;-59
2022/08/18 12:34:27;;;;;;;10.93;9.30;;;26.40;99.90;;;;;;5111329;28;20515;-59
2022/08/18 12:36:59;;;;;;;9.30;8.25;;;25.50;99.90;;;;;;5111991;28;20464;-59
2022/08/18 12:39:25;;;;;;;8.88;7.57;;;25.90;99.90;;;;;;5117554;28;20032;-59
2022/08/18 12:41:51;;;;;;;8.65;7.85;;;25.90;99.90;;;;;;5118990;28;20356;-59
2022/08/18 12:44:16;;;;;;;8.57;7.70;;;26.10;99.90;;;;;;5117879;28;20055;-59
2022/08/18 12:46:42;;;;;;;8.00;7.20;;;25.30;99.90;;;;;;5118722;28;20103;-59
2022/08/18 12:49:19;;;;;;;7.47;6.65;;;24.70;99.90;;;;;;5118296;28;20028;-59
2022/08/18 12:51:46;;;;;;;7.07;6.38;;;24.30;99.90;;;;;;5118547;28;20043;-59
2022/08/18 12:54:11;;;;;;;6.97;6.18;;;24.10;99.90;;;;;;5117274;28;20054;-59
2022/08/18 12:56:39;;;;;;;7.32;6.13;;;24.10;99.90;;;;;;5118749;28;20102;-59
2022/08/18 12:59:07;;;;;;;6.70;5.78;;;24.00;99.90;;;;;;5117642;28;20146;-59
2022/08/18 13:01:34;;;;;;;8.13;7.43;;;23.60;99.90;;;;;;5117528;28;20386;-59
2022/08/18 13:04:03;;;;;;;8.35;7.40;;;23.30;99.90;;;;;;5117405;28;20055;-59
2022/08/18 13:06:32;;;;;;;7.85;7.05;;;23.50;99.90;;;;;;5118233;28;20133;-59
2022/08/18 13:08:58;;;;;;;9.38;8.23;;;23.60;99.90;;;;;;5098620;28;20020;-59
2022/08/18 13:11:24;;;;;;;7.28;6.50;;;23.70;99.90;;;;;;5116875;28;20503;-59
2022/08/18 13:13:51;;;;;;;7.35;6.65;;;23.20;99.90;;;;;;5097577;28;20073;-59
2022/08/18 13:16:17;;;;;;;8.32;7.53;;;23.20;99.90;;;;;;5118054;28;20434;-59
2022/08/18 13:18:43;;;;;;;7.97;6.63;;;23.40;99.90;;;;;;5117324;28;20023;-59
2022/08/18 13:21:34;;;;;;;6.60;6.07;;;23.50;99.90;;;;;;5118406;28;20019;-59
2022/08/18 13:23:59;;;;;;;7.35;6.10;;;23.40;99.90;;;;;;5104982;28;20034;-59
2022/08/18 13:26:31;;;;;;;7.43;6.22;;;23.70;99.90;;;;;;5110558;28;20032;-59
2022/08/18 13:28:58;;;;;;;6.68;5.35;;;23.70;99.90;;;;;;5113407;28;20031;-59
2022/08/18 13:31:27;;;;;;;6.43;5.82;;;23.80;99.90;;;;;;5118128;28;20088;-59